createdAt,value
2018-02-21T00:02:22.390Z,99.10
2018-02-21T00:04:50.729Z,97.95
2018-02-21T00:07:18.236Z,100.62
2018-02-21T00:09:45.824Z,103.47
2018-02-21T00:12:13.360Z,97.80
2018-02-21T00:14:41.643Z,96.75
2018-02-21T00:17:09.926Z,106.57
2018-02-21T00:19:38.214Z,92.55
2018-02-21T00:22:05.719Z,95.15
2018-02-21T00:24:33.282Z,100.62
2018-02-21T00:27:00.855Z,87.50
2018-02-21T00:29:28.414Z,95.97
2018-02-21T00:31:56.692Z,107.05
2018-02-21T00:34:24.235Z,102.78
2018-02-21T00:36:51.757Z,102.43
2018-02-21T00:39:19.290Z,105.05
2018-02-21T00:41:46.892Z,94.43
2018-02-21T00:44:15.198Z,93.93
2018-02-21T00:46:42.719Z,109.47
2018-02-21T00:49:10.227Z,96.87
2018-02-21T00:51:38.618Z,97.57
2018-02-21T00:54:06.891Z,101.53
2018-02-21T00:56:34.415Z,93.35
2018-02-21T00:59:01.947Z,102.93
2018-02-21T01:01:30.261Z,103.22
2018-02-21T01:03:57.772Z,101.87
2018-02-21T01:06:25.292Z,102.07
2018-02-21T01:08:52.854Z,95.45
2018-02-21T01:11:21.147Z,111.68
2018-02-21T01:13:49.419Z,127.45
2018-02-21T01:16:17.710Z,132.00
2018-02-21T01:18:46.013Z,136.12
2018-02-21T01:21:14.323Z,134.30
2018-02-21T01:23:41.877Z,125.07
2018-02-21T01:26:10.145Z,128.65
2018-02-21T01:28:38.438Z,133.40
2018-02-21T01:31:06.726Z,134.20
2018-02-21T01:33:35.008Z,147.15
2018-02-21T01:36:02.522Z,139.23
2018-02-21T01:38:30.070Z,132.30
2018-02-21T01:40:58.361Z,130.40
2018-02-21T01:43:26.646Z,138.57
2018-02-21T01:45:54.921Z,143.10
2018-02-21T01:48:23.208Z,116.55
2018-02-21T01:50:52.619Z,118.47
2018-02-21T01:53:20.148Z,120.00
2018-02-21T01:55:47.658Z,124.12
2018-02-21T01:58:15.177Z,137.18
2018-02-21T02:00:42.779Z,130.07
2018-02-21T02:03:10.327Z,130.85
2018-02-21T02:05:37.840Z,137.02
2018-02-21T02:08:05.440Z,125.82
2018-02-21T02:10:33.838Z,134.25
2018-02-21T02:13:02.106Z,123.03
2018-02-21T02:15:30.402Z,115.18
2018-02-21T02:17:58.675Z,112.22
2018-02-21T02:20:26.281Z,107.37
2018-02-21T02:22:53.803Z,102.47
2018-02-21T02:25:21.325Z,106.10
2018-02-21T02:27:48.833Z,107.10
2018-02-21T02:30:16.365Z,117.20
2018-02-21T02:32:44.649Z,107.87
2018-02-21T02:35:12.938Z,122.45
2018-02-21T02:37:41.214Z,117.25
2018-02-21T02:40:09.513Z,114.05
2018-02-21T02:42:37.787Z,101.85
2018-02-21T02:45:06.081Z,109.00
2018-02-21T02:47:34.359Z,109.30
2018-02-21T02:50:03.399Z,104.87
2018-02-21T02:52:30.906Z,111.30
2018-02-21T02:54:58.452Z,107.65
2018-02-21T02:57:25.987Z,112.00
2018-02-21T02:59:54.275Z,117.75
2018-02-21T03:02:21.802Z,106.00
2018-02-21T03:04:49.306Z,114.28
2018-02-21T03:07:16.829Z,115.95
2018-02-21T03:09:44.333Z,111.60
2018-02-21T03:12:11.864Z,97.85
2018-02-21T03:14:39.379Z,98.75
2018-02-21T03:17:07.014Z,98.18
2018-02-21T03:19:34.566Z,106.37
2018-02-21T03:22:02.868Z,102.40
2018-02-21T03:24:30.380Z,107.47
2018-02-21T03:26:58.008Z,106.57
2018-02-21T03:29:25.579Z,100.22
2018-02-21T03:31:53.142Z,103.80
2018-02-21T03:34:21.432Z,97.37
2018-02-21T03:36:49.701Z,104.72
2018-02-21T03:39:17.290Z,94.30
2018-02-21T03:41:45.581Z,101.78
2018-02-21T03:44:13.877Z,100.82
2018-02-21T03:46:41.395Z,102.90
2018-02-21T03:49:08.928Z,100.50
2018-02-21T03:51:36.487Z,104.82
2018-02-21T03:54:04.789Z,100.72
2018-02-21T03:56:32.297Z,103.45
2018-02-21T03:58:59.832Z,91.68
2018-02-21T04:01:27.394Z,102.72
2018-02-21T04:03:54.938Z,99.37
2018-02-21T04:06:23.219Z,115.55
2018-02-21T04:08:51.489Z,96.53
2018-02-21T04:11:19.017Z,104.90
2018-02-21T04:13:46.530Z,101.40
2018-02-21T04:16:14.155Z,111.22
2018-02-21T04:18:41.679Z,103.25
2018-02-21T04:21:10.016Z,102.35
2018-02-21T04:23:37.589Z,102.62
2018-02-21T04:26:05.125Z,103.57
2018-02-21T04:28:32.637Z,108.85
2018-02-21T04:31:00.205Z,109.80
2018-02-21T04:33:27.780Z,98.05
2018-02-21T04:35:55.314Z,87.12
2018-02-21T04:38:22.838Z,101.72
2018-02-21T04:40:50.378Z,88.30
2018-02-21T04:43:18.658Z,94.93
2018-02-21T04:45:46.975Z,98.05
2018-02-21T04:48:14.489Z,105.00
2018-02-21T04:50:42.022Z,109.50
2018-02-21T04:53:09.541Z,102.93
2018-02-21T04:55:42.677Z,100.15
2018-02-21T05:01:20.651Z,142.50
2018-02-21T05:03:50.025Z,145.00
2018-02-21T05:06:18.342Z,133.50
2018-02-21T05:08:45.866Z,135.43
2018-02-21T05:11:13.413Z,134.77
2018-02-21T05:13:40.929Z,140.12
2018-02-21T05:16:08.446Z,131.27
2018-02-21T05:18:36.327Z,123.57
2018-02-21T05:21:03.862Z,150.93
2018-02-21T05:23:32.148Z,141.75
2018-02-21T05:25:59.653Z,146.27
2018-02-21T05:28:27.205Z,152.77
2018-02-21T05:30:55.486Z,142.62
2018-02-21T05:33:23.794Z,132.95
2018-02-21T05:35:51.330Z,136.02
2018-02-21T05:38:18.857Z,146.73
2018-02-21T05:40:46.365Z,126.45
2018-02-21T05:43:13.972Z,136.82
2018-02-21T05:45:42.250Z,129.20
2018-02-21T05:48:10.565Z,129.80
2018-02-21T05:50:38.083Z,131.25
2018-02-21T05:53:05.644Z,119.72
2018-02-21T05:55:33.150Z,106.87
2018-02-21T05:58:01.431Z,102.40
2018-02-21T06:00:29.738Z,102.55
2018-02-21T06:02:58.026Z,102.22
2018-02-21T06:05:26.405Z,90.10
2018-02-21T06:07:54.002Z,101.00
2018-02-21T06:10:22.287Z,95.30
2018-02-21T06:12:50.558Z,106.20
2018-02-21T06:15:18.861Z,113.78
2018-02-21T06:17:47.133Z,131.35
2018-02-21T06:20:15.429Z,125.75
2018-02-21T06:22:43.697Z,118.97
2018-02-21T06:25:11.329Z,112.77
2018-02-21T06:27:38.848Z,125.05
2018-02-21T06:30:07.174Z,107.63
2018-02-21T06:32:34.742Z,112.45
2018-02-21T06:35:03.062Z,102.65
2018-02-21T06:37:30.573Z,106.95
2018-02-21T06:39:58.109Z,101.43
2018-02-21T06:42:25.617Z,117.28
2018-02-21T06:44:53.137Z,107.57
2018-02-21T06:47:20.666Z,117.03
2018-02-21T06:49:48.454Z,113.93
2018-02-21T06:52:16.745Z,120.93
2018-02-21T06:54:45.026Z,112.40
2018-02-21T06:57:12.650Z,122.47
2018-02-21T06:59:40.202Z,124.93
2018-02-21T07:02:07.749Z,118.50
2018-02-21T07:04:35.262Z,143.25
2018-02-21T07:07:02.818Z,120.97
2018-02-21T07:09:30.377Z,121.45
2018-02-21T07:11:58.673Z,122.22
2018-02-21T07:14:26.202Z,121.00
2018-02-21T07:16:53.729Z,121.97
2018-02-21T07:19:21.237Z,121.03
2018-02-21T07:21:48.749Z,116.20
2018-02-21T07:24:17.142Z,125.53
2018-02-21T07:26:44.733Z,123.80
2018-02-21T07:29:12.295Z,129.73
2018-02-21T07:31:39.827Z,122.27
2018-02-21T07:34:07.431Z,142.53
2018-02-21T07:36:35.006Z,129.13
2018-02-21T07:39:02.582Z,134.73
2018-02-21T07:41:30.154Z,129.50
2018-02-21T07:43:57.675Z,124.63
2018-02-21T07:46:25.186Z,119.73
2018-02-21T07:48:53.477Z,129.27
2018-02-21T07:51:21.753Z,126.73
2018-02-21T07:53:49.282Z,131.37
2018-02-21T07:56:16.797Z,134.97
2018-02-21T07:58:44.441Z,131.13
2018-02-21T08:01:12.066Z,138.07
2018-02-21T08:03:40.469Z,139.87
2018-02-21T08:06:07.986Z,137.90
2018-02-21T08:08:35.489Z,128.20
2018-02-21T08:11:03.785Z,127.67
2018-02-21T08:13:32.278Z,140.83
2018-02-21T08:16:00.568Z,133.73
2018-02-21T08:18:28.835Z,127.97
2018-02-21T08:20:56.349Z,125.53
2018-02-21T08:23:23.856Z,127.40
2018-02-21T08:25:51.387Z,120.90
2018-02-21T08:28:18.936Z,127.27
2018-02-21T08:30:46.421Z,138.50
2018-02-21T08:33:13.981Z,126.23
2018-02-21T08:35:42.274Z,120.30
2018-02-21T08:38:10.537Z,117.20
2018-02-21T08:40:38.106Z,116.03
2018-02-21T08:43:05.631Z,108.63
2018-02-21T08:45:33.181Z,114.40
2018-02-21T08:48:01.600Z,109.80
2018-02-21T08:50:29.141Z,111.43
2018-02-21T08:52:57.426Z,122.63
2018-02-21T08:55:25.693Z,120.93
2018-02-21T08:57:54.755Z,113.57
2018-02-21T09:00:22.299Z,107.17
2018-02-21T09:02:50.581Z,107.27
2018-02-21T09:05:18.846Z,109.53
2018-02-21T09:07:47.129Z,119.70
2018-02-21T09:10:14.629Z,102.80
2018-02-21T09:12:43.021Z,110.53
2018-02-21T09:15:11.278Z,98.67
2018-02-21T09:17:38.782Z,110.63
2018-02-21T09:20:07.062Z,101.40
2018-02-21T09:22:34.641Z,116.80
2018-02-21T09:25:02.981Z,102.53
2018-02-21T09:27:30.499Z,107.73
2018-02-21T09:29:58.033Z,105.40
2018-02-21T09:32:25.529Z,125.83
2018-02-21T09:34:53.061Z,113.73
2018-02-21T09:37:20.618Z,102.90
2018-02-21T09:39:48.154Z,110.53
2018-02-21T09:42:16.457Z,101.77
2018-02-21T09:44:44.750Z,108.03
2018-02-21T09:47:12.253Z,100.53
2018-02-21T09:49:39.765Z,99.87
2018-02-21T09:52:07.267Z,91.87
2018-02-21T09:54:34.817Z,111.23
2018-02-21T09:57:03.082Z,104.30
2018-02-21T09:59:30.581Z,119.33
2018-02-21T10:01:58.860Z,119.97
2018-02-21T10:04:26.380Z,126.70
2018-02-21T10:06:53.914Z,127.00
2018-02-21T10:09:22.180Z,150.37
2018-02-21T10:11:50.050Z,119.20
2018-02-21T10:14:17.558Z,106.50
2018-02-21T10:16:45.842Z,109.90
2018-02-21T10:19:14.106Z,111.57
2018-02-21T10:21:41.643Z,102.93
2018-02-21T10:24:09.195Z,104.57
2018-02-21T10:26:36.727Z,106.80
2018-02-21T10:29:04.226Z,102.90
2018-02-21T10:31:31.730Z,89.07
2018-02-21T10:33:59.246Z,108.20
2018-02-21T10:36:26.741Z,111.80
2018-02-21T10:38:54.254Z,99.30
2018-02-21T10:41:21.777Z,94.37
2018-02-21T10:43:49.344Z,91.97
2018-02-21T10:46:17.609Z,91.60
2018-02-21T10:48:45.931Z,88.20
2018-02-21T10:51:13.425Z,83.67
2018-02-21T10:53:40.935Z,88.30
2018-02-21T10:56:08.434Z,98.47
2018-02-21T10:58:36.724Z,94.27
2018-02-21T11:01:10.690Z,78.63
2018-02-21T11:03:38.222Z,86.03
2018-02-21T11:06:06.493Z,87.73
2018-02-21T11:08:34.191Z,90.50
2018-02-21T11:11:01.758Z,98.60
2018-02-21T11:13:30.054Z,77.07
2018-02-21T11:15:57.548Z,81.97
2018-02-21T11:18:25.042Z,85.27
2018-02-21T11:20:52.570Z,74.57
2018-02-21T11:23:20.066Z,71.30
2018-02-21T11:25:47.598Z,69.33
2018-02-21T11:28:15.869Z,74.47
2018-02-21T11:30:43.487Z,79.07
2018-02-21T11:33:10.990Z,82.63
2018-02-21T11:35:38.520Z,77.17
2018-02-21T11:38:06.085Z,74.20
2018-02-21T11:40:33.605Z,66.17
2018-02-21T11:43:01.102Z,75.37
2018-02-21T11:45:28.706Z,77.67
2018-02-21T11:47:56.217Z,72.17
2018-02-21T11:50:23.834Z,88.83
2018-02-21T11:52:52.106Z,66.03
2018-02-21T11:55:20.412Z,80.87
2018-02-21T11:57:48.677Z,68.07
2018-02-21T12:00:16.202Z,67.77
2018-02-21T12:02:43.740Z,76.47
2018-02-21T12:05:12.020Z,71.07
2018-02-21T12:07:40.310Z,66.43
2018-02-21T12:10:08.574Z,67.53
2018-02-21T12:12:36.185Z,79.23
2018-02-21T12:15:04.457Z,82.23
2018-02-21T12:17:31.972Z,76.63
2018-02-21T12:19:59.474Z,65.27
2018-02-21T12:22:26.989Z,65.63
2018-02-21T12:24:55.259Z,63.17
2018-02-21T12:27:22.848Z,59.63
2018-02-21T12:29:51.113Z,76.97
2018-02-21T12:35:23.680Z,59.70
2018-02-21T12:37:51.194Z,60.23
2018-02-21T12:40:24.337Z,63.73
2018-02-21T12:42:52.625Z,61.93
2018-02-21T12:45:20.894Z,54.63
2018-02-21T12:47:49.162Z,64.23
2018-02-21T12:50:16.739Z,58.50
2018-02-21T12:52:44.249Z,72.50
2018-02-21T12:55:12.535Z,63.97
2018-02-21T12:57:40.803Z,69.73
2018-02-21T13:00:08.334Z,57.93
2018-02-21T13:02:35.838Z,60.10
2018-02-21T13:05:03.357Z,58.57
2018-02-21T13:07:30.863Z,59.50
2018-02-21T13:09:58.382Z,57.10
2018-02-21T13:12:26.645Z,51.23
2018-02-21T13:14:54.233Z,57.83
2018-02-21T13:17:22.530Z,49.13
2018-02-21T13:19:50.801Z,63.13
2018-02-21T13:22:18.318Z,53.43
2018-02-21T13:24:45.871Z,58.57
2018-02-21T13:27:13.390Z,49.30
2018-02-21T13:29:40.895Z,54.50
2018-02-21T13:32:09.184Z,55.33
2018-02-21T13:34:37.473Z,51.93
2018-02-21T13:37:05.779Z,61.57
2018-02-21T13:39:34.043Z,57.33
2018-02-21T13:42:02.337Z,49.90
2018-02-21T13:44:30.639Z,57.70
2018-02-21T13:46:58.211Z,52.50
2018-02-21T13:49:25.722Z,54.17
2018-02-21T13:51:53.349Z,54.40
2018-02-21T13:54:21.661Z,53.00
2018-02-21T13:56:49.190Z,49.03
2018-02-21T13:59:16.693Z,52.70
2018-02-21T14:01:44.186Z,43.80
2018-02-21T14:04:11.697Z,44.73
2018-02-21T14:06:39.198Z,51.23
2018-02-21T14:09:07.490Z,46.10
2018-02-21T14:11:34.990Z,43.37
2018-02-21T14:14:02.517Z,43.63
2018-02-21T14:16:30.786Z,47.90
2018-02-21T14:18:58.388Z,46.13
2018-02-21T14:21:26.689Z,44.80
2018-02-21T14:23:54.209Z,43.03
2018-02-21T14:26:21.707Z,41.20
2018-02-21T14:28:49.229Z,36.13
2018-02-21T14:31:16.767Z,37.07
2018-02-21T14:33:45.153Z,41.10
2018-02-21T14:36:13.448Z,38.53
2018-02-21T14:38:41.714Z,44.50
2018-02-21T14:41:09.230Z,37.70
2018-02-21T14:43:36.773Z,39.63
2018-02-21T14:46:05.065Z,39.67
2018-02-21T14:48:32.566Z,39.17
2018-02-21T14:51:00.090Z,40.53
2018-02-21T14:53:28.393Z,37.47
2018-02-21T14:55:56.699Z,42.20
2018-02-21T14:58:24.212Z,43.43
2018-02-21T15:00:51.730Z,43.57
2018-02-21T15:03:20.025Z,37.40
2018-02-21T15:05:47.553Z,36.60
2018-02-21T15:08:15.168Z,36.77
2018-02-21T15:10:43.467Z,32.37
2018-02-21T15:13:11.022Z,41.17
2018-02-21T15:15:39.317Z,36.17
2018-02-21T15:18:06.837Z,41.13
2018-02-21T15:20:34.353Z,37.60
2018-02-21T15:23:02.642Z,42.07
2018-02-21T15:25:30.929Z,46.47
2018-02-21T15:27:59.221Z,38.40
2018-02-21T15:30:27.514Z,40.50
2018-02-21T15:32:55.905Z,38.73
2018-02-21T15:35:23.478Z,39.80
2018-02-21T15:37:51.058Z,40.00
2018-02-21T15:40:18.565Z,41.53
2018-02-21T15:42:46.089Z,41.13
2018-02-21T15:45:14.384Z,43.83
2018-02-21T15:47:42.669Z,40.07
2018-02-21T15:50:10.933Z,47.30
2018-02-21T15:52:38.429Z,39.47
2018-02-21T15:55:06.714Z,40.47
2018-02-21T15:57:34.986Z,41.60
2018-02-21T16:00:02.519Z,44.77
2018-02-21T16:02:30.047Z,42.73
2018-02-21T16:04:58.329Z,46.80
2018-02-21T16:07:26.597Z,50.87
2018-02-21T16:09:54.202Z,41.77
2018-02-21T16:12:21.770Z,40.80
2018-02-21T16:14:50.130Z,43.67
2018-02-21T16:17:17.752Z,48.70
2018-02-21T16:19:45.269Z,38.40
2018-02-21T16:22:12.898Z,37.70
2018-02-21T16:24:40.425Z,44.53
2018-02-21T16:27:08.055Z,46.07
2018-02-21T16:29:35.557Z,46.87
2018-02-21T16:32:03.089Z,52.83
2018-02-21T16:34:30.626Z,52.00
2018-02-21T16:36:58.933Z,57.13
2018-02-21T16:39:26.445Z,71.30
2018-02-21T16:41:53.962Z,50.03
2018-02-21T16:44:22.230Z,53.50
2018-02-21T16:46:49.771Z,48.60
2018-02-21T16:49:17.265Z,55.17
2018-02-21T16:51:44.786Z,51.17
2018-02-21T16:54:16.302Z,61.83
2018-02-21T16:56:43.819Z,55.03
2018-02-21T16:59:11.326Z,51.20
2018-02-21T17:01:38.886Z,54.73
2018-02-21T17:04:06.434Z,55.33
2018-02-21T17:06:33.969Z,46.90
2018-02-21T17:09:01.575Z,52.23
2018-02-21T17:11:29.115Z,56.67
2018-02-21T17:13:56.622Z,58.80
2018-02-21T17:16:24.140Z,57.77
2018-02-21T17:18:51.752Z,72.00
2018-02-21T17:21:20.058Z,43.03
2018-02-21T17:23:47.585Z,51.33
2018-02-21T17:26:15.102Z,55.90
2018-02-21T17:28:42.621Z,54.23
2018-02-21T17:31:10.118Z,51.73
2018-02-21T17:33:38.409Z,52.63
2018-02-21T17:36:06.722Z,53.00
2018-02-21T17:38:34.252Z,54.93
2018-02-21T17:41:07.453Z,56.57
2018-02-21T17:43:34.982Z,52.87
2018-02-21T17:46:02.491Z,56.50
2018-02-21T17:48:30.037Z,58.10
2018-02-21T17:50:57.566Z,55.40
2018-02-21T17:53:25.856Z,56.07
2018-02-21T17:55:54.140Z,59.90
2018-02-21T17:58:22.486Z,55.70
2018-02-21T18:00:50.017Z,60.87
2018-02-21T18:03:18.298Z,56.20
2018-02-21T18:05:46.638Z,53.70
2018-02-21T18:08:14.137Z,54.30
2018-02-21T18:10:41.745Z,55.60
2018-02-21T18:13:09.247Z,51.20
2018-02-21T18:15:36.765Z,52.13
2018-02-21T18:18:05.038Z,55.70
2018-02-21T18:20:32.565Z,59.50
2018-02-21T18:23:00.069Z,50.83
2018-02-21T18:25:27.595Z,61.50
2018-02-21T18:27:55.103Z,57.47
2018-02-21T18:30:22.648Z,56.63
2018-02-21T18:32:50.190Z,54.88
2018-02-21T18:35:17.697Z,55.40
2018-02-21T18:37:45.226Z,62.20
2018-02-21T18:40:13.507Z,51.83
2018-02-21T18:42:41.029Z,52.33
2018-02-21T18:45:08.534Z,53.45
2018-02-21T18:47:36.062Z,56.47
2018-02-21T18:50:03.571Z,52.80
2018-02-21T18:52:31.094Z,55.60
2018-02-21T18:54:58.599Z,50.00
2018-02-21T18:57:26.142Z,57.08
2018-02-21T18:59:53.649Z,52.22
2018-02-21T19:02:21.179Z,54.65
2018-02-21T19:04:48.682Z,54.45
2018-02-21T19:07:16.303Z,45.83
2018-02-21T19:09:43.774Z,50.27
2018-02-21T19:12:12.046Z,52.62
2018-02-21T19:14:40.346Z,46.90
2018-02-21T19:17:08.741Z,48.60
2018-02-21T19:19:37.078Z,53.42
2018-02-21T19:22:04.605Z,51.90
2018-02-21T19:24:32.889Z,48.72
2018-02-21T19:27:01.159Z,57.60
2018-02-21T19:29:28.686Z,53.55
2018-02-21T19:31:56.190Z,62.20
2018-02-21T19:34:23.713Z,50.72
2018-02-21T19:36:51.221Z,50.28
2018-02-21T19:39:18.737Z,57.88
2018-02-21T19:41:47.007Z,50.58
2018-02-21T19:44:15.302Z,52.50
2018-02-21T19:46:43.586Z,51.85
2018-02-21T19:49:11.191Z,50.45
2018-02-21T19:51:38.713Z,48.35
2018-02-21T19:54:06.220Z,51.85
2018-02-21T19:56:34.514Z,59.63
2018-02-21T19:59:02.021Z,53.03
2018-02-21T20:01:29.571Z,57.00
2018-02-21T20:03:57.090Z,57.62
2018-02-21T20:06:25.537Z,55.65
2018-02-21T20:08:53.106Z,51.78
2018-02-21T20:11:20.635Z,48.80
2018-02-21T20:13:48.139Z,53.42
2018-02-21T20:16:15.666Z,52.15
2018-02-21T20:18:43.181Z,57.72
2018-02-21T20:21:10.706Z,53.90
2018-02-21T20:23:38.209Z,72.07
2018-02-21T20:26:06.481Z,52.95
2018-02-21T20:28:34.022Z,56.10
2018-02-21T20:31:01.553Z,47.88
2018-02-21T20:33:29.849Z,55.20
2018-02-21T20:35:57.363Z,47.83
2018-02-21T20:38:25.012Z,56.30
2018-02-21T20:40:52.514Z,50.35
2018-02-21T20:43:20.054Z,55.53
2018-02-21T20:45:47.561Z,52.25
2018-02-21T20:48:15.175Z,64.35
2018-02-21T20:50:42.761Z,48.75
2018-02-21T20:53:10.285Z,61.15
2018-02-21T20:55:37.885Z,49.92
2018-02-21T20:58:06.177Z,51.30
2018-02-21T21:00:33.713Z,51.67
2018-02-21T21:03:01.249Z,55.47
2018-02-21T21:05:28.766Z,52.50
2018-02-21T21:07:57.098Z,55.03
2018-02-21T21:10:24.629Z,52.47
2018-02-21T21:12:52.946Z,50.95
2018-02-21T21:15:20.485Z,47.47
2018-02-21T21:17:48.006Z,55.92
2018-02-21T21:20:15.538Z,55.15
2018-02-21T21:22:43.809Z,56.15
2018-02-21T21:25:11.352Z,63.83
2018-02-21T21:27:38.879Z,59.30
2018-02-21T21:30:07.173Z,49.65
2018-02-21T21:32:35.458Z,53.42
2018-02-21T21:35:03.744Z,57.28
2018-02-21T21:37:32.031Z,50.60
2018-02-21T21:40:00.320Z,52.83
2018-02-21T21:42:28.589Z,47.13
2018-02-21T21:44:56.117Z,47.72
2018-02-21T21:47:23.625Z,49.78
2018-02-21T21:49:51.210Z,51.22
2018-02-21T21:52:18.714Z,47.95
2018-02-21T21:54:46.225Z,55.28
2018-02-21T21:57:13.765Z,47.47
2018-02-21T21:59:41.325Z,50.88
2018-02-21T22:02:09.629Z,47.28
2018-02-21T22:04:37.133Z,51.75
2018-02-21T22:07:04.653Z,53.42
2018-02-21T22:09:32.917Z,54.08
2018-02-21T22:12:00.445Z,49.97
2018-02-21T22:14:27.957Z,43.22
2018-02-21T22:16:55.485Z,54.92
2018-02-21T22:19:22.995Z,58.65
2018-02-21T22:21:50.520Z,56.97
2018-02-21T22:24:18.079Z,56.37
2018-02-21T22:26:45.605Z,57.75
2018-02-21T22:29:13.128Z,58.38
2018-02-21T22:31:40.685Z,56.75
2018-02-21T22:34:08.218Z,67.05
2018-02-21T22:36:35.726Z,57.10
2018-02-21T22:39:04.018Z,58.65
2018-02-21T22:41:32.294Z,57.88
2018-02-21T22:44:00.593Z,58.20
2018-02-21T22:46:28.861Z,53.22
2018-02-21T22:48:56.453Z,66.00
2018-02-21T22:51:24.747Z,58.42
2018-02-21T22:53:52.282Z,57.85
2018-02-21T22:56:19.898Z,61.42
2018-02-21T22:58:47.417Z,59.47
2018-02-21T23:01:14.928Z,61.88
2018-02-21T23:03:43.212Z,55.28
2018-02-21T23:06:11.485Z,49.28
2018-02-21T23:08:39.093Z,68.53
2018-02-21T23:11:06.605Z,61.22
2018-02-21T23:13:34.141Z,69.75
2018-02-21T23:16:01.650Z,58.83
2018-02-21T23:18:29.155Z,63.87
2018-02-21T23:20:57.454Z,74.03
2018-02-21T23:23:26.254Z,71.07
2018-02-21T23:25:54.545Z,66.25
2018-02-21T23:28:22.956Z,62.28
2018-02-21T23:30:50.477Z,65.35
2018-02-21T23:33:18.082Z,60.83
2018-02-21T23:35:46.371Z,63.47
2018-02-21T23:38:14.647Z,57.53
2018-02-21T23:40:42.939Z,61.58
2018-02-21T23:43:11.213Z,63.13
2018-02-21T23:45:38.741Z,65.25
2018-02-21T23:48:06.245Z,66.25
2018-02-21T23:50:33.781Z,71.62
2018-02-21T23:53:01.286Z,62.85
2018-02-21T23:55:28.802Z,65.12
2018-02-21T23:57:56.365Z,62.25
